createdAt,value
2018-02-07T00:00:22.663Z,96579.98
2018-02-07T00:02:50.168Z,96580.02
2018-02-07T00:05:18.017Z,96579.98
2018-02-07T00:07:45.534Z,96576.25
2018-02-07T00:10:13.066Z,96575.42
2018-02-07T00:12:40.631Z,96575.42
2018-02-07T00:15:08.154Z,96566.76
2018-02-07T00:17:35.814Z,96573.34
2018-02-07T00:20:03.362Z,96572.90
2018-02-07T00:22:30.889Z,96567.53
2018-02-07T00:24:59.230Z,96568.87
2018-02-07T00:27:26.741Z,96565.95
2018-02-07T00:29:54.301Z,96566.38
2018-02-07T00:32:21.829Z,96564.33
2018-02-07T00:34:49.342Z,96570.55
2018-02-07T00:37:16.878Z,96564.30
2018-02-07T00:39:44.423Z,96576.31
2018-02-07T00:42:11.977Z,96575.09
2018-02-07T00:44:39.490Z,96576.41
2018-02-07T00:47:07.010Z,96577.59
2018-02-07T00:49:34.557Z,96578.47
2018-02-07T00:52:02.084Z,96569.75
2018-02-07T00:54:29.738Z,96568.92
2018-02-07T00:56:57.256Z,96566.88
2018-02-07T00:59:24.822Z,96566.46
2018-02-07T01:01:52.371Z,96571.86
2018-02-07T01:04:19.899Z,96583.52
2018-02-07T01:06:47.610Z,96578.53
2018-02-07T01:09:15.150Z,96580.66
2018-02-07T01:11:42.661Z,96583.55
2018-02-07T01:14:10.211Z,96587.70
2018-02-07T01:16:37.731Z,96594.81
2018-02-07T01:19:05.285Z,96596.08
2018-02-07T01:21:32.800Z,96591.56
2018-02-07T01:24:00.321Z,96592.42
2018-02-07T01:26:27.866Z,96588.27
2018-02-07T01:28:55.400Z,96585.38
2018-02-07T01:31:23.402Z,96584.14
2018-02-07T01:33:50.913Z,96592.86
2018-02-07T01:36:18.443Z,96594.93
2018-02-07T01:38:45.990Z,96599.08
2018-02-07T01:41:13.542Z,96601.19
2018-02-07T01:43:41.424Z,96599.13
2018-02-07T01:46:08.946Z,96599.94
2018-02-07T01:48:36.464Z,96594.96
2018-02-07T01:51:04.011Z,96604.90
2018-02-07T01:53:31.545Z,96607.80
2018-02-07T01:55:59.113Z,96602.49
2018-02-07T01:58:26.668Z,96597.91
2018-02-07T02:00:54.179Z,96600.01
2018-02-07T02:03:21.725Z,96594.19
2018-02-07T02:05:49.246Z,96600.03
2018-02-07T02:08:16.996Z,96607.96
2018-02-07T02:10:44.514Z,96606.73
2018-02-07T02:13:12.030Z,96602.16
2018-02-07T02:15:39.574Z,96604.62
2018-02-07T02:18:07.086Z,96607.13
2018-02-07T02:20:35.735Z,96600.09
2018-02-07T02:23:03.257Z,96599.31
2018-02-07T02:25:30.770Z,96597.67
2018-02-07T02:27:58.317Z,96605.58
2018-02-07T02:30:25.850Z,96603.08
2018-02-07T02:32:53.512Z,96599.77
2018-02-07T02:35:21.030Z,96594.77
2018-02-07T02:37:48.546Z,96600.98
2018-02-07T02:40:16.090Z,96604.73
2018-02-07T02:42:43.601Z,96602.25
2018-02-07T02:45:11.157Z,96603.89
2018-02-07T02:47:38.684Z,96603.91
2018-02-07T02:50:06.212Z,96608.44
2018-02-07T02:52:33.763Z,96608.89
2018-02-07T02:55:01.286Z,96605.51
2018-02-07T02:57:29.334Z,96609.73
2018-02-07T02:59:57.126Z,96608.80
2018-02-07T03:02:24.757Z,96608.33
2018-02-07T03:04:52.415Z,96610.38
2018-02-07T03:07:19.937Z,96610.30
2018-02-07T03:09:48.131Z,96614.83
2018-02-07T03:12:15.654Z,96613.61
2018-02-07T03:14:43.166Z,96621.08
2018-02-07T03:17:10.713Z,96623.25
2018-02-07T03:19:38.232Z,96621.02
2018-02-07T03:22:06.030Z,96631.73
2018-02-07T03:24:33.558Z,96632.00
2018-02-07T03:27:01.078Z,96624.83
2018-02-07T03:29:28.615Z,96622.75
2018-02-07T03:31:56.133Z,96616.05
2018-02-07T03:34:23.961Z,96617.70
2018-02-07T03:36:51.488Z,96604.83
2018-02-07T03:39:19.005Z,96613.28
2018-02-07T03:41:46.545Z,96611.56
2018-02-07T03:44:14.065Z,96608.18
2018-02-07T03:46:41.931Z,96603.22
2018-02-07T03:49:09.442Z,96606.98
2018-02-07T03:51:36.957Z,96611.20
2018-02-07T03:54:04.505Z,96608.30
2018-02-07T03:56:32.025Z,96607.48
2018-02-07T03:58:59.720Z,96608.30
2018-02-07T04:01:27.252Z,96601.34
2018-02-07T04:03:54.793Z,96605.91
2018-02-07T04:06:22.333Z,96607.08
2018-02-07T04:08:49.860Z,96613.75
2018-02-07T04:11:17.596Z,96620.03
2018-02-07T04:13:45.114Z,96622.52
2018-02-07T04:16:12.642Z,96625.05
2018-02-07T04:18:40.181Z,96624.67
2018-02-07T04:21:07.709Z,96623.45
2018-02-07T04:23:35.525Z,96627.66
2018-02-07T04:26:03.051Z,96630.53
2018-02-07T04:28:30.578Z,96626.02
2018-02-07T04:30:58.116Z,96619.81
2018-02-07T04:33:25.985Z,96619.88
2018-02-07T04:35:53.930Z,96619.07
2018-02-07T04:38:21.440Z,96621.17
2018-02-07T04:40:49.714Z,96618.73
2018-02-07T04:43:17.261Z,96613.79
2018-02-07T04:45:44.773Z,96616.69
2018-02-07T04:48:12.545Z,96616.69
2018-02-07T04:50:40.063Z,96620.84
2018-02-07T04:53:07.584Z,96621.28
2018-02-07T04:55:35.126Z,96620.84
2018-02-07T04:58:02.641Z,96629.58
2018-02-07T05:00:30.555Z,96630.90
2018-02-07T05:02:58.073Z,96632.12
2018-02-07T05:05:25.593Z,96626.35
2018-02-07T05:07:53.135Z,96624.27
2018-02-07T05:10:20.669Z,96629.21
2018-02-07T05:12:48.246Z,96623.41
2018-02-07T05:15:15.761Z,96619.69
2018-02-07T05:17:43.278Z,96628.86
2018-02-07T05:20:10.825Z,96627.67
2018-02-07T05:22:38.338Z,96635.94
2018-02-07T05:25:06.038Z,96627.18
2018-02-07T05:27:33.576Z,96624.30
2018-02-07T05:30:01.095Z,96621.39
2018-02-07T05:32:28.643Z,96623.92
2018-02-07T05:34:56.162Z,96623.50
2018-02-07T05:37:23.736Z,96626.83
2018-02-07T05:39:51.258Z,96621.41
2018-02-07T05:42:18.782Z,96623.87
2018-02-07T05:44:46.326Z,96627.20
2018-02-07T05:47:13.842Z,96624.72
2018-02-07T05:49:41.525Z,96632.16
2018-02-07T05:52:09.043Z,96635.05
2018-02-07T05:54:36.561Z,96638.38
2018-02-07T05:57:04.106Z,96648.34
2018-02-07T05:59:31.626Z,96645.36
2018-02-07T06:01:59.326Z,96644.91
2018-02-07T06:04:26.845Z,96649.86
2018-02-07T06:06:54.385Z,96650.28
2018-02-07T06:09:21.937Z,96649.45
2018-02-07T06:11:49.457Z,96652.38
2018-02-07T06:14:17.218Z,96653.98
2018-02-07T06:16:44.733Z,96656.47
2018-02-07T06:19:12.250Z,96656.91
2018-02-07T06:21:39.798Z,96655.66
2018-02-07T06:24:07.326Z,96666.87
2018-02-07T06:26:35.021Z,96662.30
2018-02-07T06:29:02.549Z,96668.11
2018-02-07T06:31:30.066Z,96670.17
2018-02-07T06:33:57.613Z,96675.55
2018-02-07T06:36:25.129Z,96685.13
2018-02-07T06:38:52.725Z,96685.50
2018-02-07T06:41:20.233Z,96680.09
2018-02-07T06:43:47.759Z,96685.84
2018-02-07T06:46:15.304Z,96688.25
2018-02-07T06:48:42.817Z,96679.07
2018-02-07T06:51:10.610Z,96693.08
2018-02-07T06:53:38.127Z,96694.63
2018-02-07T06:56:05.645Z,96694.09
2018-02-07T06:58:33.199Z,96696.55
2018-02-07T07:01:00.720Z,96691.53
2018-02-07T07:03:28.289Z,96694.33
2018-02-07T07:05:55.815Z,96694.63
2018-02-07T07:08:23.337Z,96688.71
2018-02-07T07:10:50.897Z,96694.05
2018-02-07T07:13:18.427Z,96698.63
2018-02-07T07:15:46.113Z,96699.40
2018-02-07T07:18:13.637Z,96711.81
2018-02-07T07:20:41.156Z,96716.77
2018-02-07T07:23:08.713Z,96719.23
2018-02-07T07:25:36.238Z,96713.38
2018-02-07T07:28:04.223Z,96726.13
2018-02-07T07:30:31.799Z,96722.75
2018-02-07T07:32:59.321Z,96729.16
2018-02-07T07:35:26.873Z,96730.30
2018-02-07T07:37:54.405Z,96740.00
2018-02-07T07:40:21.963Z,96746.48
2018-02-07T07:42:49.494Z,96739.80
2018-02-07T07:45:17.031Z,96740.60
2018-02-07T07:47:44.638Z,96741.78
2018-02-07T07:50:12.246Z,96742.53
2018-02-07T07:52:39.825Z,96738.23
2018-02-07T07:55:07.351Z,96741.47
2018-02-07T07:57:34.874Z,96749.79
2018-02-07T08:00:02.448Z,96749.27
2018-02-07T08:02:29.969Z,96751.35
2018-02-07T08:04:57.897Z,96752.48
2018-02-07T08:07:25.532Z,96753.53
2018-02-07T08:09:53.066Z,96745.97
2018-02-07T08:12:20.626Z,96747.50
2018-02-07T08:14:48.145Z,96749.17
2018-02-07T08:17:15.900Z,96749.96
2018-02-07T08:19:43.422Z,96749.75
2018-02-07T08:22:10.948Z,96756.59
2018-02-07T08:24:38.510Z,96755.30
2018-02-07T08:27:06.035Z,96760.98
2018-02-07T08:29:33.902Z,96769.27
2018-02-07T08:32:01.418Z,96766.28
2018-02-07T08:34:28.939Z,96769.80
2018-02-07T08:36:56.481Z,96772.62
2018-02-07T08:39:24.006Z,96770.80
2018-02-07T08:41:51.805Z,96769.09
2018-02-07T08:44:19.321Z,96778.80
2018-02-07T08:46:47.346Z,96776.63
2018-02-07T08:49:15.203Z,96776.90
2018-02-07T08:51:42.722Z,96776.53
2018-02-07T08:54:10.283Z,96787.42
2018-02-07T08:56:37.806Z,96784.41
2018-02-07T08:59:05.341Z,96788.09
2018-02-07T09:01:32.890Z,96784.89
2018-02-07T09:04:00.417Z,96787.45
2018-02-07T09:06:28.137Z,96787.05
2018-02-07T09:08:55.686Z,96789.75
2018-02-07T09:11:23.218Z,96780.56
2018-02-07T09:13:50.771Z,96770.48
2018-02-07T09:16:18.299Z,96771.30
2018-02-07T09:18:46.010Z,96777.46
2018-02-07T09:21:13.529Z,96778.88
2018-02-07T09:23:41.051Z,96777.22
2018-02-07T09:26:08.597Z,96774.25
2018-02-07T09:28:36.118Z,96770.53
2018-02-07T09:31:04.013Z,96772.78
2018-02-07T09:33:31.532Z,96766.13
2018-02-07T09:35:59.055Z,96773.42
2018-02-07T09:38:26.608Z,96772.66
2018-02-07T09:40:54.130Z,96779.09
2018-02-07T09:43:21.937Z,96776.77
2018-02-07T09:45:49.450Z,96783.15
2018-02-07T09:48:16.965Z,96779.73
2018-02-07T09:50:44.518Z,96785.78
2018-02-07T09:53:12.048Z,96788.61
2018-02-07T09:55:39.804Z,96790.42
2018-02-07T09:58:07.326Z,96789.12
2018-02-07T10:00:34.933Z,96786.34
2018-02-07T10:03:02.495Z,96797.06
2018-02-07T10:05:30.019Z,96797.44
2018-02-07T10:07:57.826Z,96797.23
2018-02-07T10:10:25.353Z,96799.48
2018-02-07T10:12:52.866Z,96803.16
2018-02-07T10:15:20.417Z,96806.84
2018-02-07T10:17:47.933Z,96807.12
2018-02-07T10:20:15.603Z,96810.02
2018-02-07T10:22:43.150Z,96813.44
2018-02-07T10:25:10.665Z,96809.25
2018-02-07T10:27:38.229Z,96805.67
2018-02-07T10:30:05.846Z,96808.31
2018-02-07T10:32:33.708Z,96801.63
2018-02-07T10:35:01.238Z,96807.13
2018-02-07T10:37:28.760Z,96811.62
2018-02-07T10:39:56.307Z,96812.66
2018-02-07T10:42:23.825Z,96805.05
2018-02-07T10:44:51.502Z,96813.78
2018-02-07T10:47:19.024Z,96815.52
2018-02-07T10:49:46.541Z,96815.03
2018-02-07T10:52:14.110Z,96812.23
2018-02-07T10:54:41.629Z,96820.48
2018-02-07T10:57:09.409Z,96819.80
2018-02-07T10:59:37.030Z,96820.54
2018-02-07T11:02:04.561Z,96825.14
2018-02-07T11:04:32.109Z,96825.02
2018-02-07T11:06:59.626Z,96826.60
2018-02-07T11:09:27.341Z,96822.42
2018-02-07T11:11:54.920Z,96824.78
2018-02-07T11:14:22.415Z,96826.89
2018-02-07T11:16:49.972Z,96824.13
2018-02-07T11:19:17.502Z,96829.69
2018-02-07T11:21:45.193Z,96826.36
2018-02-07T11:24:12.714Z,96833.91
2018-02-07T11:26:40.237Z,96832.92
2018-02-07T11:29:07.801Z,96827.52
2018-02-07T11:31:35.317Z,96827.91
2018-02-07T11:34:03.092Z,96833.94
2018-02-07T11:36:30.617Z,96830.36
2018-02-07T11:38:58.137Z,96828.56
2018-02-07T11:41:25.691Z,96826.94
2018-02-07T11:43:53.202Z,96830.30
2018-02-07T11:46:20.877Z,96827.80
2018-02-07T11:48:48.420Z,96832.03
2018-02-07T11:51:15.941Z,96823.26
2018-02-07T11:53:43.489Z,96826.98
2018-02-07T11:56:11.001Z,96825.99
2018-02-07T11:58:38.794Z,96823.63
2018-02-07T12:01:06.316Z,96828.11
2018-02-07T12:03:33.850Z,96824.07
2018-02-07T12:06:01.410Z,96823.92
2018-02-07T12:08:29.023Z,96827.53
2018-02-07T12:10:56.709Z,96829.70
2018-02-07T12:13:24.260Z,96830.68
2018-02-07T12:15:51.847Z,96829.92
2018-02-07T12:18:19.412Z,96822.47
2018-02-07T12:20:47.258Z,96818.74
2018-02-07T12:23:14.994Z,96826.86
2018-02-07T12:25:42.513Z,96822.70
2018-02-07T12:28:10.037Z,96818.90
2018-02-07T12:30:37.987Z,96815.11
2018-02-07T12:33:05.501Z,96826.11
2018-02-07T12:35:33.060Z,96828.45
2018-02-07T12:38:01.086Z,96824.32
2018-02-07T12:40:28.606Z,96825.03
2018-02-07T12:42:56.254Z,96823.13
2018-02-07T12:45:23.778Z,96828.95
2018-02-07T12:47:51.717Z,96832.20
2018-02-07T12:50:19.246Z,96831.27
2018-02-07T12:52:46.777Z,96819.69
2018-02-07T12:55:14.325Z,96823.70
2018-02-07T12:57:41.853Z,96821.45
2018-02-07T13:00:09.817Z,96817.74
2018-02-07T13:02:37.342Z,96828.97
2018-02-07T13:05:04.946Z,96821.94
2018-02-07T13:07:32.506Z,96825.31
2018-02-07T13:10:00.025Z,96823.65
2018-02-07T13:12:27.622Z,96821.28
2018-02-07T13:14:55.164Z,96812.38
2018-02-07T13:17:22.686Z,96815.05
2018-02-07T13:19:50.250Z,96814.09
2018-02-07T13:22:17.766Z,96811.16
2018-02-07T13:24:45.401Z,96814.44
2018-02-07T13:27:12.927Z,96813.77
2018-02-07T13:29:40.473Z,96822.56
2018-02-07T13:32:08.027Z,96822.47
2018-02-07T13:34:35.542Z,96823.88
2018-02-07T13:37:03.305Z,96824.20
2018-02-07T13:39:30.830Z,96825.14
2018-02-07T13:41:58.445Z,96820.95
2018-02-07T13:44:25.985Z,96825.55
2018-02-07T13:46:53.721Z,96824.14
2018-02-07T13:49:21.605Z,96830.67
2018-02-07T13:51:49.178Z,96826.06
2018-02-07T13:54:16.854Z,96822.80
2018-02-07T13:56:44.596Z,96828.33
2018-02-07T13:59:12.257Z,96832.40
2018-02-07T14:01:40.145Z,96836.84
2018-02-07T14:04:07.794Z,96833.45
2018-02-07T14:06:35.308Z,96835.06
2018-02-07T14:09:03.028Z,96828.45
2018-02-07T14:11:30.596Z,96831.30
2018-02-07T14:13:58.126Z,96838.37
2018-02-07T14:16:25.905Z,96835.03
2018-02-07T14:18:53.440Z,96839.17
2018-02-07T14:21:20.958Z,96835.29
2018-02-07T14:23:49.202Z,96840.41
2018-02-07T14:26:16.743Z,96844.49
2018-02-07T14:28:44.382Z,96853.71
2018-02-07T14:31:12.110Z,96855.38
2018-02-07T14:33:39.629Z,96861.80
2018-02-07T14:36:07.165Z,96863.41
2018-02-07T14:38:34.814Z,96859.26
2018-02-07T14:41:02.428Z,96859.55
2018-02-07T14:43:29.974Z,96861.87
2018-02-07T14:45:57.941Z,96865.23
2018-02-07T14:48:25.457Z,96862.55
2018-02-07T14:50:52.978Z,96864.97
2018-02-07T14:53:20.829Z,96854.48
2018-02-07T14:55:48.341Z,96866.56
2018-02-07T14:58:15.892Z,96861.73
2018-02-07T15:00:43.922Z,96867.73
2018-02-07T15:03:11.493Z,96872.47
2018-02-07T15:05:39.089Z,96875.61
2018-02-07T15:08:06.674Z,96871.86
2018-02-07T15:10:34.201Z,96871.09
2018-02-07T15:13:01.754Z,96875.13
2018-02-07T15:15:29.456Z,96877.75
2018-02-07T15:17:57.030Z,96873.64
2018-02-07T15:20:24.703Z,96881.38
2018-02-07T15:22:52.422Z,96881.33
2018-02-07T15:25:20.229Z,96888.09
2018-02-07T15:27:48.094Z,96889.41
2018-02-07T15:30:16.065Z,96891.75
2018-02-07T15:32:43.829Z,96891.86
2018-02-07T15:35:11.577Z,96891.69
2018-02-07T15:37:39.261Z,96890.16
2018-02-07T15:40:06.916Z,96891.24
2018-02-07T15:42:34.666Z,96890.58
2018-02-07T15:45:02.481Z,96893.52
2018-02-07T15:47:30.374Z,96896.70
2018-02-07T15:49:58.278Z,96892.23
2018-02-07T15:52:26.145Z,96898.67
2018-02-07T15:54:53.673Z,96886.26
2018-02-07T15:57:21.289Z,96901.66
2018-02-07T15:59:49.436Z,96907.33
2018-02-07T16:02:17.201Z,96902.42
2018-02-07T16:04:44.771Z,96908.28
2018-02-07T16:07:13.705Z,96914.13
2018-02-07T16:09:41.619Z,96910.89
2018-02-07T16:12:09.792Z,96918.64
2018-02-07T16:14:37.560Z,96918.29
2018-02-07T16:17:05.849Z,96916.72
2018-02-07T16:19:33.740Z,96925.06
2018-02-07T16:22:01.668Z,96925.74
2018-02-07T16:24:30.629Z,96931.19
2018-02-07T16:26:58.285Z,96937.28
2018-02-07T16:29:26.073Z,96930.13
2018-02-07T16:31:53.850Z,96939.36
2018-02-07T16:34:21.717Z,96938.58
2018-02-07T16:36:49.380Z,96944.94
2018-02-07T16:39:17.222Z,96944.66
2018-02-07T16:41:45.112Z,96946.66
2018-02-07T16:44:13.185Z,96951.34
2018-02-07T16:46:41.050Z,96952.78
2018-02-07T16:49:09.555Z,96959.41
2018-02-07T16:51:37.397Z,96968.44
2018-02-07T16:54:05.262Z,96966.34
2018-02-07T16:56:33.232Z,96967.48
2018-02-07T16:59:00.995Z,96975.07
2018-02-07T17:01:29.073Z,96983.80
2018-02-07T17:03:56.727Z,96979.12
2018-02-07T17:06:24.334Z,96980.83
2018-02-07T17:08:52.258Z,96980.28
2018-02-07T17:11:20.123Z,96979.66
2018-02-07T17:13:48.056Z,96990.18
2018-02-07T17:16:15.714Z,96988.76
2018-02-07T17:18:43.563Z,96997.02
2018-02-07T17:21:11.281Z,97006.33
2018-02-07T17:23:39.148Z,96996.27
2018-02-07T17:26:07.105Z,97004.58
2018-02-07T17:28:35.155Z,97004.58
2018-02-07T17:31:03.464Z,97009.88
2018-02-07T17:33:31.433Z,97015.77
2018-02-07T17:35:59.306Z,97012.72
2018-02-07T17:38:27.267Z,97020.26
2018-02-07T17:40:55.237Z,97022.16
2018-02-07T17:43:22.999Z,97027.23
2018-02-07T17:45:50.970Z,97032.92
2018-02-07T17:48:18.835Z,97032.92
2018-02-07T17:50:48.238Z,97041.84
2018-02-07T17:53:17.130Z,97042.14
2018-02-07T17:55:44.995Z,97036.33
2018-02-07T17:58:12.963Z,97043.09
2018-02-07T18:00:40.832Z,97045.14
2018-02-07T18:03:08.788Z,97046.13
2018-02-07T18:05:36.572Z,97043.81
2018-02-07T18:08:04.549Z,97051.16
2018-02-07T18:10:33.124Z,97060.77
2018-02-07T18:13:01.514Z,97054.92
2018-02-07T18:15:29.568Z,97058.05
2018-02-07T18:17:57.457Z,97063.54
2018-02-07T18:20:25.297Z,97063.88
2018-02-07T18:22:53.267Z,97066.01
2018-02-07T18:25:21.111Z,97067.48
2018-02-07T18:27:49.819Z,97058.67
2018-02-07T18:30:18.575Z,97057.13
2018-02-07T18:32:46.472Z,97067.06
2018-02-07T18:35:14.544Z,97064.81
2018-02-07T18:37:42.411Z,97068.69
2018-02-07T18:40:10.411Z,97066.11
2018-02-07T18:42:38.350Z,97071.16
2018-02-07T18:45:06.117Z,97071.16
2018-02-07T18:47:33.872Z,97071.12
2018-02-07T18:50:01.743Z,97075.63
2018-02-07T18:52:29.769Z,97073.00
2018-02-07T18:54:59.319Z,97077.25
2018-02-07T18:57:27.583Z,97079.26
2018-02-07T18:59:56.245Z,97080.52
2018-02-07T19:02:24.250Z,97083.47
2018-02-07T19:04:53.446Z,97087.16
2018-02-07T19:07:21.415Z,97090.03
2018-02-07T19:09:49.282Z,97083.81
2018-02-07T19:12:17.250Z,97085.61
2018-02-07T19:14:45.731Z,97086.03
2018-02-07T19:17:13.786Z,97083.06
2018-02-07T19:19:42.181Z,97087.97
2018-02-07T19:22:09.957Z,97086.98
2018-02-07T19:24:37.826Z,97093.66
2018-02-07T19:27:06.296Z,97092.41
2018-02-07T19:29:34.466Z,97089.86
2018-02-07T19:32:02.333Z,97091.08
2018-02-07T19:34:30.198Z,97092.70
2018-02-07T19:36:58.394Z,97100.69
2018-02-07T19:39:26.341Z,97101.05
2018-02-07T19:41:54.597Z,97101.09
2018-02-07T19:44:22.480Z,97099.84
2018-02-07T19:46:50.351Z,97101.89
2018-02-07T19:49:18.423Z,97103.19
2018-02-07T19:51:47.211Z,97106.14
2018-02-07T19:54:15.384Z,97110.23
2018-02-07T19:56:43.250Z,97108.58
2018-02-07T19:59:11.116Z,97107.48
2018-02-07T20:01:38.998Z,97109.83
2018-02-07T20:04:07.001Z,97108.77
2018-02-07T20:06:35.336Z,97108.02
2018-02-07T20:09:03.825Z,97112.48
2018-02-07T20:11:32.091Z,97114.34
2018-02-07T20:14:00.469Z,97113.81
2018-02-07T20:16:28.436Z,97128.01
2018-02-07T20:18:56.608Z,97119.77
2018-02-07T20:21:24.967Z,97119.63
2018-02-07T20:23:53.364Z,97121.30
2018-02-07T20:26:21.333Z,97118.38
2018-02-07T20:28:49.303Z,97126.34
2018-02-07T20:31:18.094Z,97132.41
2018-02-07T20:33:46.162Z,97130.59
2018-02-07T20:36:13.991Z,97135.98
2018-02-07T20:38:41.998Z,97136.78
2018-02-07T20:41:09.969Z,97136.54
2018-02-07T20:43:38.038Z,97142.58
2018-02-07T20:46:05.984Z,97133.75
2018-02-07T20:48:34.592Z,97145.02
2018-02-07T20:51:02.560Z,97146.77
2018-02-07T20:53:30.528Z,97140.45
2018-02-07T20:55:58.702Z,97145.89
2018-02-07T20:58:26.671Z,97145.47
2018-02-07T21:00:55.461Z,97147.62
2018-02-07T21:03:23.475Z,97144.36
2018-02-07T21:05:51.396Z,97138.55
2018-02-07T21:08:19.569Z,97143.04
2018-02-07T21:10:47.474Z,97143.49
2018-02-07T21:13:15.405Z,97144.74
2018-02-07T21:15:44.706Z,97155.91
2018-02-07T21:18:12.574Z,97150.48
2018-02-07T21:20:40.816Z,97148.84
2018-02-07T21:23:08.713Z,97151.31
2018-02-07T21:25:36.582Z,97151.31
2018-02-07T21:28:05.269Z,97155.70
2018-02-07T21:30:33.681Z,97158.00
2018-02-07T21:33:01.818Z,97153.82
2018-02-07T21:35:30.002Z,97153.44
2018-02-07T21:37:58.589Z,97153.36
2018-02-07T21:40:28.085Z,97150.37
2018-02-07T21:42:56.052Z,97162.44
2018-02-07T21:45:24.942Z,97159.52
2018-02-07T21:47:55.878Z,97164.15
2018-02-07T21:50:24.362Z,97162.48
2018-02-07T21:52:53.352Z,97159.52
2018-02-07T21:55:21.633Z,97156.17
2018-02-07T21:57:49.807Z,97159.89
2018-02-07T22:00:17.857Z,97157.35
2018-02-07T22:02:46.067Z,97167.48
2018-02-07T22:05:14.015Z,97163.66
2018-02-07T22:07:41.882Z,97162.78
2018-02-07T22:10:09.851Z,97166.20
2018-02-07T22:12:37.717Z,97169.16
2018-02-07T22:15:06.628Z,97167.03
2018-02-07T22:17:34.594Z,97167.98
2018-02-07T22:20:02.567Z,97163.80
2018-02-07T22:22:30.412Z,97163.98
2018-02-07T22:24:58.278Z,97167.29
2018-02-07T22:27:26.353Z,97165.55
2018-02-07T22:29:54.114Z,97163.50
2018-02-07T22:32:21.981Z,97165.27
2018-02-07T22:34:49.783Z,97167.64
2018-02-07T22:37:17.509Z,97167.56
2018-02-07T22:39:45.367Z,97169.72
2018-02-07T22:42:12.985Z,97168.89
2018-02-07T22:44:40.689Z,97165.96
2018-02-07T22:47:08.375Z,97172.61
2018-02-07T22:49:35.946Z,97176.58
2018-02-07T22:52:03.755Z,97177.09
2018-02-07T22:54:31.441Z,97179.95
2018-02-07T22:56:59.111Z,97188.26
2018-02-07T22:59:26.673Z,97195.84
2018-02-07T23:01:54.203Z,97192.88
2018-02-07T23:04:21.966Z,97199.75
2018-02-07T23:06:49.486Z,97198.02
2018-02-07T23:09:17.041Z,97204.16
2018-02-07T23:11:44.581Z,97204.69
2018-02-07T23:14:12.097Z,97206.30
2018-02-07T23:16:39.772Z,97199.45
2018-02-07T23:19:07.281Z,97201.39
2018-02-07T23:21:34.799Z,97205.50
2018-02-07T23:24:02.386Z,97206.81
2018-02-07T23:26:30.126Z,97200.88
2018-02-07T23:28:57.873Z,97205.08
2018-02-07T23:31:25.388Z,97204.39
2018-02-07T23:33:52.901Z,97201.92
2018-02-07T23:36:20.503Z,97208.51
2018-02-07T23:38:48.029Z,97201.00
2018-02-07T23:41:15.624Z,97202.70
2018-02-07T23:43:43.147Z,97202.97
2018-02-07T23:46:10.678Z,97205.88
2018-02-07T23:48:38.229Z,97205.79
2018-02-07T23:51:05.749Z,97215.80
2018-02-07T23:53:33.370Z,97211.25
2018-02-07T23:56:00.894Z,97210.86
2018-02-07T23:58:28.409Z,97214.10
